Terminal Aerodrome Forecast
Issued by NWS

Home | Current Version | Previous Version | Graphics & Text | Print | Product List | Glossary On
Versions: 1 2 3 4 5 6 7 8 9 10 11 12 13
000
FTUS45 KGGW 012300
TAFSDY
TAF
KSDY 012320Z 0200/0224 22010KT P6SM SCT200
     FM020200 VRB04KT P6SM SCT200
     FM021800 28014KT P6SM SCT200
     FM022000 28017G27KT P6SM SCT200
      AMD LTD TO CLD VIS AND WIND=

USA.gov is the U.S. government's official web portal to all federal, state and local government web resources and services.